Timeline UpdatesTrip UpdatesNews PostsPvt PostsTravel TipsAdmin PostsConv PostsFollowed PostsChat RequestsBlog PostsPNR Posts

Disclaimer
Search
 
 
Fri Aug 22, 2014 13:23:36 ISTHomeTrainsΣChainsAtlasPNRForumGalleryNewsFAQTripsMembersLoginFeedback
No Recent News for this Train
Other Trains in the News **new
Latest...
Permanent AC-3T added from 01 Sep 12 http://indiarailinfo.com/blog/post/512304
Sat Aug 25, 2012 (09:15AM)
⇐ Return Journey: Train# 18234

18233/Narmada Express

May 09 2014 (9:25PM)
Change Departure Station:
Change Arrival Station:
Post a Train Travel TipPost a Train Travel Tip **new
Post a Comment/Question/Picture/VideoPost a Comment/Question/Picture/Video
Pantry/Catering
✕ NO Pantry Car
✓ Catering Avbl
Loco/Rake Reversals
UJN/Ujjain Junction (8); ET/Itarsi Junction (7); KTE/Katni Junction (6);
RSA - Rake Sharing
Rake/Coach Composition
ENG-SLR-GS-GS-GS-S1-S2-S3-S4-S5-S6-S7-S8-S9-S10-A1-HA1-B1-B2-GS-GS-SLR (INDB-UJN, ET-KTE); ENG-SLR-GS-GS-B2-B1-HA1-A1-S10-S9-S8-S7-S6-S5-S4-S3-S2-S1-GS-GS-GS-SLR (UJN-ET), (KTE-BSP)
Loco
ET WAM 4/6p (INDB-ET) ET WDP4/WDM-3A (ET-KTE) ET WAM/P4 (KTE-BSP)
News    PNR    Forum    Time-Table    Availability    Fare Chart    Map    Arr/Dep History    Trips    Gallery    ΣChains    X/O    Timeline    
Travel Time: 24h 10m    69 halts    Distance: 1010 km    Avg Speed: 41 km/hr
Type: Mail/Express
Zone: SECR/South East Central
Departs @ 17:15 (Avg 3m late)
Platform# 3
SMTWTFS
Indore Junction BG/INDB 
Arrives @ 17:25 +1 night (Avg 25m late)
Platform# 8
SMTWTFS
Bilaspur Junction/BSP 

69 halts. 125 intermediate Stations between Indore Junction BG and Bilaspur Junction

Show ALL intermediate Stations  Show Old Time-Table

#CodeStation NameX/OArrivesAvgDepartsAvgHaltPFDay#KmSpeedElevZoneAddress
1INDB»Indore Junction BG (3)»  -17:15+3310.056552mWRIndore 452001, Madhya Pradesh
2MGGMangliyagaon (2)  17:31+1417:33+132m--115.075534mWRMangilya, Madhya Pradesh
3BLAXBarlai  17:41+1617:43+162m--125.046519mWRIndore, Madhya Pradesh
4DWXDewas Junction (2)X  18:01+1318:03+162m2138.837541mWRDewas, Madhya Pradesh
5NRGRNaranjipur (1)X  18:19+1318:21+182m1148.639537mWRDewas, Madhya Pradesh
6UDMUndasa Madhopur  18:32-18:34-2m--155.948528mWRState Highway 18, Madhya Pradesh
7KDHAKarchhaX  18:41+1318:43+132m--161.449514mWRState Highway 18, Madhya Pradesh
8VRGVikram Nagar (2)  18:58+1019:00+92m--173.733503mWRUjjain, Madhya Pradesh
9UJNUjjain Junction (8)19:10+1119:40+930m1179.173492mWRUjjain 456001, Madhya Pradesh
10TANTarana Road  20:06+1520:07+151m--1110.652498mWRMaksi, Madhya Pradesh
11MKCMaksi Junction (3)X  20:18+1620:20+172m--1120.281513mWRMakshi, Madhya Pradesh
12BCHBerchha (2)  20:34+2320:36+252m--1139.166490mWRShajapur, Madhya Pradesh
13KSHKali Sindh (2)  20:47+2620:49+302m--1151.267443mWRShajapur, Madhya Pradesh
14AKDAkodia (2)  21:05+3321:07+352m--1169.171460mWRDist. Shajapur, Madhya Pradesh
15SJPShujalpur (3)X  21:18+3721:20+382m21182.269453mWRShujalpur, Madhya Pradesh
16KPPKalapipal (2)X  21:31+3821:33+382m--1194.847487mWRState Highway 41, Madhya Pradesh
17SEHSehore (2)  22:10+2322:12+232m21223.836500mWRMP 466001, Madhya Pradesh
18BIHBairagarh (2)  22:59+223:01+52m21252.344522mWRBhopal, Madhya Pradesh
19BPLBhopal Junction (6)X  23:15+2123:25+2710m31262.538497mWCRBhopal, Madhya Pradesh
20HBJBhopal HabibGanj (5)  23:35+3423:37+372m41268.864496mWCRHabibGanj, Madhya Pradesh
21MDDPMandi Dip (1)X  23:52+4223:54+462m11284.914 WCRMandideep, Madhya Pradesh
22ODGObaidulla GanjXO  00:53+900:55+162m12298.458 WCRObaidullaganj Raisen Dist., Madhya Pradesh
23HBDHoshangabad (2)X  01:34+2001:36+212m--2336.228308mWCRHoshangabad, Madhya Pradesh
24ETItarsi Junction (7)02:15+1002:25+1610m32354.259329mWCRItarsi 461111, Madhya Pradesh
25BGTABagratawa (2)X  02:52+4102:54+412m--2380.777338mWCRBagra Tawa, Madhya Pradesh
26SGPSohagpur (2)  03:12+4203:14+442m--2403.876340mWCRSohagpur, Madhya Pradesh
27PPIPipariya (3)X  03:28+4603:30+482m12421.589338mWCRPiparia, Madhya Pradesh
28SCKRSalichauka Road (2)X  03:54+5403:56+542m--2456.976355mWCRGadarwara, Madhya Pradesh
29GARGadarwara (2)X  04:07+5504:09+552m12470.980352mWCRNarsinghpur, Madhya Pradesh
30KYKareli (2)  04:30+5504:32+552m12498.866361mWCRKareli, Madhya Pradesh
31NUNarsinghpur (2)  04:47+5704:49+572m12515.274365mWCRNarsimhapur, Madhya Pradesh
32SRIDShridham (3)  05:14+5905:16+592m22546.266373mWCRShridham, Madhya Pradesh
33MMLMadan Mahal (3)X  06:01+4706:03+492m22595.918428mWCRJabalpur, Madhya Pradesh
34JBPJabalpur Junction (4)X  06:15+4606:25+5310m32599.437416mWCRJabalpur, Madhya Pradesh
35ADTLAdhartal (2)X  06:38+5506:40+582m--2607.441393mWCRJabalpur, Madhya Pradesh
36DOEDeori (2)  06:53+5306:55+532m--2616.249392mWCRJabalpur, Madhya Pradesh
37GSPRGosalpur (2)XO  07:08+5007:10+502m--2626.748396mWCRJabalpur, Madhya Pradesh
38SHRSihora Road (2)X  07:24+4807:26+482m--2637.875388mWCRJabalpur, Madhya Pradesh
39DDCEDundi (2)X  07:38+4907:40+492m--2652.771415mWCRDundi, Madhya Pradesh
40SBDSleemanabad Road (2)  07:48+4907:50+492m--2662.252434mWCRSleemanabad, Madhya Pradesh
41SNRRSansarpur (2)X  07:58-08:00-2m--2669.258436mWCRNational Highway 7, Madhya Pradesh
42NWRNiwar (2)X  08:08+4708:10+472m--2676.916412mWCRPipraundh, Madhya Pradesh
43KTEKatni Junction (6)X09:00+2109:20+2420m--2690.122387mWCRKatni, Madhya Pradesh
44JLWJhalwara  09:49+3409:51+342m--2700.770406mSECRNational Highway 78, Madhya Pradesh
45RPDRupaundX  10:01+3610:03+372m--2712.474417mSECRJhalwara, Madhya Pradesh
46CHDChandia Road (1)  10:17+4110:19+422m12729.754406mSECRNational Highway 78, Madhya Pradesh
47UMRUmaria (3)  10:40+3810:45+385m--2748.795469mSECRUmaria, Madhya Pradesh
48KKIKarkeli  10:53+4210:55+422m--2761.360471mSECRUmaria, Madhya Pradesh
49NRZBNowrozabadX  11:05+4311:07+422m--2771.362458mSECRNational Highway 78, Madhya Pradesh
50BRSBirsinghpur  11:14+4111:16+412m--2778.651461mSECRPali, Madhya Pradesh
51SDLShahdolX  12:00+2812:10+2810m12815.973466mSECR, Madhya Pradesh
52BUHBurhar  12:26+4512:28+462m--2835.465494mSECRBurhar, Madhya Pradesh
53AALAmlaiX  12:36+4512:38+462m--2844.235495mSECRAnuppur, Madhya Pradesh
54APRAnuppur Junction (3)X  13:00+3613:05+425m12856.877487mSECRAnuppur, Madhya Pradesh
55CLFChhulha  13:09+5113:11+1:002m--2862.075488mSECRMauhari, Madhya Pradesh
56JTIJaithari  13:18+1:0413:20+1:052m--2870.780522mSECRAnuppur, Madhya Pradesh
57NIQNigaura  13:28+1:0813:30+1:092m--2881.465547mSECRAnuppur, Madhya Pradesh
58VKRVenkatnagarX  13:37+1:1113:39+1:122m--2889.079549mSECRPendra Rd, Madhya Pradesh
59HRBHarri  13:47+1:1613:49+1:182m--2899.624595mSECRVenkatnagar, Madhya Pradesh
60PNDPendra RoadO  14:10+1:0514:15+1:075m--2908.062620mSECRBilaspur district, Chhattisgarh
61KOIKhodriO  14:26+1:1814:28+1:222m--2919.441558mSECRBilaspur, Chhattisgarh
62BHTKBhanwar Tonk  14:45+1:2114:47+1:222m--2931.044455mSECRKhodri, Chhattisgarh
63KGSKhongsara  15:04+1:1915:06+1:202m--2943.485378mSECRBhanwar, Chhattisgarh
64TGQTenganmadaX  15:12+1:2415:16+1:224m--2951.974367mSECRBelgahna, Chhattisgarh
65BIGBelgahnaX  15:24+1:2215:26+1:242m--2961.765327mSECRBilaspur, Chhattisgarh
66SLKRSalkaroad  15:33+1:2415:35+1:242m--2969.361333mSECRGhutku, Chhattisgarh
67KGBKargi RoadX  15:43+1:2215:45+1:212m--2977.559327mSECRBilaspur, Chhattisgarh
68KLTRKalmitar  15:53+1:1515:55+1:142m--2985.319300mSECRUsalapur, Chhattisgarh
69GTKGhutku  16:20+5716:22+562m--2993.320288mSECRBilaspur, Chhattisgarh
70USLUslapur (3)  16:45+4116:50+405m--21001.015272mSECRBilaspur, Chhattisgarh
71BSP•Bilaspur Junction (8)•  17:25+25-821009.5-271mSECRBilaspur, Chhattisgarh
Scroll to Top
Scroll to Bottom